Time;durP1;ratioP1;P1;durP2;ratioP2;P2;SDS_P1;SDS_P2;PMS_P1;PMS_P2;Temp;Humidity;BMP_temperature;BMP_pressure;BME280_temperature;BME280_humidity;BME280_pressure;Samples;Min_cycle;Max_cycle;Signal;HPM_P1;HPM_P2
2024/02/05 00:00:00;;;;;;;31.27;5.28;;;9.90;99.90;;;;;;5065425;28;20017;-50
2024/02/05 00:02:26;;;;;;;33.90;6.93;;;9.90;99.90;;;;;;5065572;28;20025;-49
2024/02/05 00:04:52;;;;;;;34.45;5.80;;;9.90;99.90;;;;;;5064217;28;20032;-51
2024/02/05 00:07:18;;;;;;;26.27;5.32;;;9.90;99.90;;;;;;5066152;28;20029;-50
2024/02/05 00:09:44;;;;;;;30.00;6.03;;;9.90;99.90;;;;;;5069426;28;20048;-49
2024/02/05 00:12:10;;;;;;;30.40;5.72;;;9.90;99.90;;;;;;5069189;28;20226;-50
2024/02/05 00:14:37;;;;;;;33.47;6.75;;;9.90;99.90;;;;;;5068351;28;20075;-49
2024/02/05 00:17:03;;;;;;;30.92;4.90;;;9.80;99.90;;;;;;5067981;28;20048;-47
2024/02/05 00:19:28;;;;;;;35.33;6.72;;;9.80;99.90;;;;;;5068963;28;20279;-48
2024/02/05 00:21:54;;;;;;;31.33;7.45;;;9.80;99.90;;;;;;5069218;28;20029;-50
2024/02/05 00:24:19;;;;;;;22.52;5.53;;;9.80;99.90;;;;;;5069213;28;20096;-48
2024/02/05 00:26:45;;;;;;;29.02;6.72;;;9.70;99.90;;;;;;5069212;28;20029;-48
2024/02/05 00:29:11;;;;;;;29.95;6.50;;;9.60;99.90;;;;;;5069141;28;20313;-48
2024/02/05 00:31:36;;;;;;;31.20;6.13;;;9.60;99.90;;;;;;5069016;28;20033;-50
2024/02/05 00:34:02;;;;;;;26.77;5.78;;;9.50;99.90;;;;;;5068793;28;20028;-49
2024/02/05 00:36:28;;;;;;;30.63;5.95;;;9.50;99.90;;;;;;5067684;28;20025;-50
2024/02/05 00:38:53;;;;;;;30.17;6.65;;;9.50;99.90;;;;;;5068969;28;20093;-50
2024/02/05 00:41:19;;;;;;;19.23;4.65;;;9.40;99.90;;;;;;5068938;28;20040;-51
2024/02/05 00:43:45;;;;;;;27.65;5.80;;;9.40;99.90;;;;;;5068818;28;20028;-50
2024/02/05 00:46:23;;;;;;;27.75;6.82;;;9.40;99.90;;;;;;5068644;28;20100;-51
2024/02/05 00:48:55;;;;;;;22.63;6.07;;;9.40;99.90;;;;;;5067822;28;20190;-50
2024/02/05 00:51:21;;;;;;;32.85;8.13;;;9.30;99.90;;;;;;5067413;28;20040;-50
2024/02/05 00:53:47;;;;;;;28.10;7.00;;;9.30;99.90;;;;;;5067494;28;20039;-50
2024/02/05 00:56:13;;;;;;;25.75;6.38;;;9.30;99.90;;;;;;5068468;28;20036;-47
2024/02/05 00:58:38;;;;;;;29.65;5.97;;;9.30;99.90;;;;;;5068540;28;20033;-50
2024/02/05 01:01:04;;;;;;;20.75;6.07;;;9.30;99.90;;;;;;5068996;28;20090;-51
2024/02/05 01:03:30;;;;;;;27.55;6.38;;;9.20;99.90;;;;;;5068443;28;20278;-51
2024/02/05 01:05:56;;;;;;;25.00;5.38;;;9.20;99.90;;;;;;5068180;28;20091;-50
2024/02/05 01:08:22;;;;;;;24.77;5.35;;;9.20;99.90;;;;;;5068326;28;20269;-51
2024/02/05 01:10:47;;;;;;;25.50;5.85;;;9.20;99.90;;;;;;5068429;28;20021;-50
2024/02/05 01:13:13;;;;;;;30.05;7.38;;;9.20;99.90;;;;;;5068209;28;20037;-47
2024/02/05 01:15:39;;;;;;;27.40;6.45;;;9.20;99.90;;;;;;5068180;28;20028;-47
2024/02/05 01:18:05;;;;;;;19.08;4.13;;;9.20;99.90;;;;;;5067854;28;20203;-47
2024/02/05 01:20:30;;;;;;;24.17;6.10;;;9.30;99.90;;;;;;5066959;28;20338;-47
2024/02/05 01:22:56;;;;;;;23.98;5.88;;;9.30;99.90;;;;;;5067191;28;20040;-48
2024/02/05 01:25:22;;;;;;;21.95;5.40;;;9.30;99.90;;;;;;5067725;28;20036;-48
2024/02/05 01:27:47;;;;;;;25.63;4.65;;;9.30;99.90;;;;;;5067974;28;20048;-50
2024/02/05 01:30:13;;;;;;;15.55;6.15;;;9.30;99.90;;;;;;5067990;28;20025;-47
2024/02/05 01:32:39;;;;;;;27.10;5.47;;;9.30;99.90;;;;;;5066876;28;20033;-47
2024/02/05 01:35:05;;;;;;;21.60;6.22;;;9.40;99.90;;;;;;5067915;28;20179;-50
2024/02/05 01:37:31;;;;;;;23.27;5.80;;;9.40;99.90;;;;;;5067832;28;20032;-49
2024/02/05 01:39:56;;;;;;;23.92;5.15;;;9.40;99.90;;;;;;5067136;28;20023;-48
2024/02/05 01:42:24;;;;;;;14.68;4.63;;;9.30;99.90;;;;;;5067712;28;20037;-50
2024/02/05 01:44:50;;;;;;;17.10;5.47;;;9.30;99.90;;;;;;5067717;28;20033;-49
2024/02/05 01:47:16;;;;;;;30.58;6.43;;;9.30;99.90;;;;;;5067727;28;20063;-48
2024/02/05 01:49:41;;;;;;;20.92;5.65;;;9.40;99.90;;;;;;5066503;28;20033;-49
2024/02/05 01:52:09;;;;;;;18.67;5.13;;;9.40;99.90;;;;;;5067349;28;20085;-50
2024/02/05 01:54:35;;;;;;;23.73;5.65;;;9.40;99.90;;;;;;5066616;28;20204;-50
2024/02/05 01:57:01;;;;;;;23.08;5.40;;;9.50;99.90;;;;;;5066481;28;20036;-50
2024/02/05 01:59:27;;;;;;;17.35;5.20;;;9.50;99.90;;;;;;5066763;28;20036;-50
2024/02/05 02:01:52;;;;;;;23.83;7.07;;;9.50;99.90;;;;;;5067390;28;20074;-48
2024/02/05 02:04:18;;;;;;;20.52;5.97;;;9.50;99.90;;;;;;5067152;28;20037;-48
2024/02/05 02:06:43;;;;;;;24.90;5.75;;;9.50;99.90;;;;;;5067362;28;20087;-49
2024/02/05 02:09:13;;;;;;;17.90;5.30;;;9.50;99.90;;;;;;5066272;28;20040;-50
2024/02/05 02:11:41;;;;;;;26.80;5.93;;;9.50;99.90;;;;;;5066978;28;20037;-50
2024/02/05 02:14:08;;;;;;;28.75;4.72;;;9.60;99.90;;;;;;5066016;28;20301;-50
2024/02/05 02:16:33;;;;;;;22.83;4.20;;;9.60;99.90;;;;;;5066892;28;20105;-49
2024/02/05 02:19:01;;;;;;;24.63;6.38;;;9.60;99.90;;;;;;5067362;28;20290;-49
2024/02/05 02:21:26;;;;;;;28.65;6.78;;;9.50;99.90;;;;;;5066946;28;20020;-49
2024/02/05 02:23:52;;;;;;;19.95;5.35;;;9.50;99.90;;;;;;5049533;28;20067;-48
2024/02/05 02:26:18;;;;;;;19.13;5.18;;;9.50;99.90;;;;;;5049309;28;20109;-48
2024/02/05 02:28:43;;;;;;;23.65;5.68;;;9.50;99.90;;;;;;5066969;28;20100;-47
2024/02/05 02:31:09;;;;;;;20.70;6.10;;;9.40;99.90;;;;;;5066516;28;20035;-51
2024/02/05 02:33:53;;;;;;;20.67;5.47;;;9.40;99.90;;;;;;5066493;28;20062;-47
2024/02/05 02:36:24;;;;;;;20.60;5.28;;;9.40;99.90;;;;;;5065642;28;20025;-49
2024/02/05 02:39:12;;;;;;;21.98;6.22;;;9.40;99.90;;;;;;5066719;28;20039;-49
2024/02/05 02:41:40;;;;;;;19.20;5.47;;;9.30;99.90;;;;;;5066596;28;20039;-48
2024/02/05 02:44:05;;;;;;;23.05;5.60;;;9.40;99.90;;;;;;5065501;28;20033;-50
2024/02/05 02:46:31;;;;;;;27.17;5.80;;;9.40;99.90;;;;;;5065541;28;20040;-50
2024/02/05 02:48:57;;;;;;;30.00;5.70;;;9.40;99.90;;;;;;5048939;28;20032;-49
2024/02/05 02:51:23;;;;;;;14.95;4.75;;;9.40;99.90;;;;;;5066111;28;20063;-49
2024/02/05 02:53:49;;;;;;;18.45;5.22;;;9.50;99.90;;;;;;5066089;28;20113;-50
2024/02/05 02:56:15;;;;;;;17.90;4.82;;;9.50;99.90;;;;;;5065339;28;20025;-48
2024/02/05 02:58:40;;;;;;;19.17;5.25;;;9.50;99.90;;;;;;5066296;28;20040;-50
2024/02/05 03:01:06;;;;;;;23.35;5.57;;;9.40;99.90;;;;;;5065326;28;20039;-50
2024/02/05 03:03:32;;;;;;;24.95;5.93;;;9.40;99.90;;;;;;5066391;28;20028;-48
2024/02/05 03:05:57;;;;;;;18.60;5.35;;;9.40;99.90;;;;;;5065118;28;20028;-50
2024/02/05 03:08:23;;;;;;;15.23;5.30;;;9.40;99.90;;;;;;5066169;28;20090;-50
2024/02/05 03:10:49;;;;;;;17.67;5.03;;;9.40;99.90;;;;;;5066258;28;20028;-51
2024/02/05 03:13:15;;;;;;;22.48;5.63;;;9.40;99.90;;;;;;5066534;28;20033;-51
2024/02/05 03:15:41;;;;;;;27.38;6.00;;;9.40;99.90;;;;;;5065817;28;20021;-51
2024/02/05 03:18:07;;;;;;;24.92;5.47;;;9.40;99.90;;;;;;5065451;28;20219;-51
2024/02/05 03:20:37;;;;;;;20.52;4.85;;;9.40;99.90;;;;;;5065920;28;20033;-49
2024/02/05 03:23:05;;;;;;;20.90;6.80;;;9.40;99.90;;;;;;5065875;28;20059;-48
2024/02/05 03:25:31;;;;;;;23.58;5.80;;;9.40;99.90;;;;;;5065584;28;20024;-47
2024/02/05 03:27:57;;;;;;;16.70;4.97;;;9.50;99.90;;;;;;5065647;28;20036;-47
2024/02/05 03:30:23;;;;;;;16.88;4.63;;;9.50;99.90;;;;;;5064610;28;20024;-48
2024/02/05 03:32:49;;;;;;;23.88;6.32;;;9.50;99.90;;;;;;5064552;28;20333;-48
2024/02/05 03:35:16;;;;;;;20.08;5.60;;;9.50;99.90;;;;;;5065808;28;20059;-48
2024/02/05 03:37:44;;;;;;;16.05;4.93;;;9.60;99.90;;;;;;5065702;28;20012;-48
2024/02/05 03:40:11;;;;;;;19.88;4.53;;;9.60;99.90;;;;;;5064541;28;20041;-50
2024/02/05 03:42:36;;;;;;;10.85;3.47;;;9.50;99.90;;;;;;5064845;28;20033;-48
2024/02/05 03:45:02;;;;;;;16.35;5.30;;;9.60;99.90;;;;;;5065693;28;20098;-49
2024/02/05 03:47:28;;;;;;;14.73;4.43;;;9.60;99.90;;;;;;5065349;28;20032;-47
2024/02/05 03:49:54;;;;;;;14.60;5.13;;;9.60;99.90;;;;;;5065407;28;20360;-48
2024/02/05 03:52:19;;;;;;;17.02;5.03;;;9.60;99.90;;;;;;5065346;28;20179;-48
2024/02/05 03:54:46;;;;;;;14.63;4.70;;;9.60;99.90;;;;;;5064528;28;20021;-51
2024/02/05 03:57:14;;;;;;;21.10;5.63;;;9.70;99.90;;;;;;5065604;28;20287;-49
2024/02/05 03:59:40;;;;;;;23.08;5.07;;;9.70;99.90;;;;;;5065666;28;20021;-50
2024/02/05 04:02:06;;;;;;;18.92;5.57;;;9.70;99.90;;;;;;5065492;28;20168;-47
2024/02/05 04:04:32;;;;;;;17.73;4.72;;;9.70;99.90;;;;;;5065000;28;20176;-50
2024/02/05 04:06:58;;;;;;;12.57;3.90;;;9.70;99.90;;;;;;5065454;28;20051;-50
2024/02/05 04:09:23;;;;;;;19.13;5.70;;;9.70;99.90;;;;;;5064259;28;20032;-50
2024/02/05 04:11:49;;;;;;;25.38;5.78;;;9.70;99.90;;;;;;5065455;28;20178;-49
2024/02/05 04:14:15;;;;;;;15.02;4.22;;;9.70;99.90;;;;;;5065305;28;20029;-49
2024/02/05 04:16:41;;;;;;;18.88;4.82;;;9.70;99.90;;;;;;5064803;28;20321;-50
2024/02/05 04:19:07;;;;;;;22.65;6.18;;;9.70;99.90;;;;;;5065385;28;20029;-50
2024/02/05 04:21:32;;;;;;;16.67;4.70;;;9.70;99.90;;;;;;5065056;28;20029;-50
2024/02/05 04:23:58;;;;;;;15.32;4.65;;;9.70;99.90;;;;;;5065084;28;20029;-51
2024/02/05 04:26:24;;;;;;;14.32;4.30;;;9.70;99.90;;;;;;5065162;28;20043;-51
2024/02/05 04:28:49;;;;;;;21.88;5.40;;;9.70;99.90;;;;;;5065258;28;20021;-48
2024/02/05 04:31:15;;;;;;;18.67;4.75;;;9.70;99.90;;;;;;5065266;28;20029;-49
2024/02/05 04:33:41;;;;;;;13.00;3.88;;;9.70;99.90;;;;;;5064690;28;20048;-50
2024/02/05 04:36:13;;;;;;;13.32;4.88;;;9.70;99.90;;;;;;5064716;28;20029;-50
2024/02/05 04:38:39;;;;;;;16.75;3.83;;;9.70;99.90;;;;;;5065133;28;20021;-47
2024/02/05 04:41:05;;;;;;;13.95;4.72;;;9.70;99.90;;;;;;5065155;28;20029;-47
2024/02/05 04:43:31;;;;;;;13.27;3.85;;;9.80;99.90;;;;;;5064220;28;20210;-48
2024/02/05 04:45:57;;;;;;;19.02;4.15;;;9.70;99.90;;;;;;5065230;28;20084;-47
2024/02/05 04:48:22;;;;;;;13.68;3.40;;;9.80;99.90;;;;;;5064688;28;20037;-49
2024/02/05 04:50:48;;;;;;;14.90;4.15;;;9.80;99.90;;;;;;5065086;28;20040;-49
2024/02/05 04:53:14;;;;;;;14.13;4.63;;;9.80;99.90;;;;;;5065508;28;20287;-50
2024/02/05 04:55:41;;;;;;;16.30;3.95;;;9.70;99.90;;;;;;5068614;28;20139;-50
2024/02/05 04:58:10;;;;;;;11.68;3.50;;;9.80;99.90;;;;;;5068429;28;20036;-50
2024/02/05 05:04:10;;;;;;;15.85;4.78;;;9.70;99.90;;;;;;5068453;28;20043;-48
2024/02/05 05:06:36;;;;;;;13.50;4.38;;;9.70;99.90;;;;;;5068491;28;20306;-48
2024/02/05 05:09:02;;;;;;;14.02;3.40;;;9.80;99.90;;;;;;5068395;28;20035;-50
2024/02/05 05:11:27;;;;;;;20.08;4.28;;;9.70;99.90;;;;;;5067418;28;20032;-50
2024/02/05 05:13:53;;;;;;;12.23;3.20;;;9.80;99.90;;;;;;5067349;28;20100;-50
2024/02/05 05:16:19;;;;;;;18.30;4.80;;;9.70;99.90;;;;;;5067928;28;20178;-50
2024/02/05 05:18:45;;;;;;;24.15;5.05;;;9.70;99.90;;;;;;5068292;28;20032;-50
2024/02/05 05:21:11;;;;;;;15.40;4.32;;;9.70;99.90;;;;;;5068193;28;20032;-50
2024/02/05 05:23:36;;;;;;;15.00;3.92;;;9.70;99.90;;;;;;5068092;28;20025;-49
2024/02/05 05:26:02;;;;;;;23.25;4.70;;;9.70;99.90;;;;;;5068270;28;20028;-48
2024/02/05 05:28:30;;;;;;;26.17;4.75;;;9.70;99.90;;;;;;5068182;28;20104;-50
2024/02/05 05:30:56;;;;;;;24.33;4.90;;;9.80;99.90;;;;;;5068007;28;20051;-48
2024/02/05 05:33:22;;;;;;;10.50;3.65;;;9.80;99.90;;;;;;5067821;28;20028;-47
2024/02/05 05:35:47;;;;;;;12.90;3.65;;;9.80;99.90;;;;;;5067690;28;20029;-47
2024/02/05 05:38:13;;;;;;;26.38;5.03;;;9.80;99.90;;;;;;5067397;28;20021;-50
2024/02/05 05:40:38;;;;;;;17.10;4.88;;;9.80;99.90;;;;;;5067853;28;20029;-47
2024/02/05 05:43:04;;;;;;;21.02;4.60;;;9.80;99.90;;;;;;5066775;28;20032;-47
2024/02/05 05:45:30;;;;;;;19.00;4.60;;;9.80;99.90;;;;;;5067823;28;20037;-47
2024/02/05 05:47:56;;;;;;;21.20;4.93;;;9.80;99.90;;;;;;5067730;28;20053;-49
2024/02/05 05:50:21;;;;;;;22.20;4.40;;;9.80;99.90;;;;;;5067517;28;20065;-49
2024/02/05 05:52:47;;;;;;;20.40;5.15;;;9.80;99.90;;;;;;5067501;28;20060;-49
2024/02/05 05:55:13;;;;;;;25.63;4.45;;;9.80;99.90;;;;;;5067652;28;20033;-50
2024/02/05 05:57:39;;;;;;;20.02;4.97;;;9.80;99.90;;;;;;5067666;28;20329;-48
2024/02/05 06:00:05;;;;;;;22.30;5.40;;;9.80;99.90;;;;;;5067722;28;20029;-48
2024/02/05 06:02:31;;;;;;;16.27;4.88;;;9.80;99.90;;;;;;5067474;28;20029;-49
2024/02/05 06:04:58;;;;;;;24.10;5.47;;;9.80;99.90;;;;;;5066699;28;20255;-50
2024/02/05 06:07:23;;;;;;;14.23;3.80;;;9.80;99.90;;;;;;5066173;28;20036;-49
2024/02/05 06:09:49;;;;;;;18.48;4.75;;;9.80;99.90;;;;;;5066993;28;20317;-48
2024/02/05 06:12:16;;;;;;;24.70;4.30;;;9.80;99.90;;;;;;5067154;28;20025;-48
2024/02/05 06:14:43;;;;;;;19.35;4.28;;;9.80;99.90;;;;;;5067111;28;20029;-48
2024/02/05 06:17:08;;;;;;;22.55;5.28;;;9.80;99.90;;;;;;5066835;28;20314;-50
2024/02/05 06:19:34;;;;;;;13.13;3.20;;;9.80;99.90;;;;;;5065898;28;20088;-48
2024/02/05 06:22:00;;;;;;;13.70;3.60;;;9.80;99.90;;;;;;5066846;28;20096;-50
2024/02/05 06:24:25;;;;;;;9.48;2.65;;;9.80;99.90;;;;;;5066766;28;20029;-50
2024/02/05 06:26:51;;;;;;;9.32;2.65;;;9.80;99.90;;;;;;5065755;28;20036;-50
2024/02/05 06:29:17;;;;;;;24.02;3.95;;;9.80;99.90;;;;;;5066886;28;20393;-48
2024/02/05 06:31:42;;;;;;;12.48;2.38;;;9.90;99.90;;;;;;5066394;28;20186;-49
2024/02/05 06:34:08;;;;;;;11.18;2.38;;;9.90;99.90;;;;;;5066495;28;20128;-47
2024/02/05 06:36:34;;;;;;;18.20;3.22;;;9.90;99.90;;;;;;5066718;28;20340;-48
2024/02/05 06:39:00;;;;;;;20.67;2.67;;;9.90;99.90;;;;;;5066703;28;20025;-47
2024/02/05 06:41:25;;;;;;;6.18;1.65;;;9.80;99.90;;;;;;5066436;28;20187;-48
2024/02/05 06:43:51;;;;;;;13.48;2.50;;;9.90;99.90;;;;;;5066571;28;20041;-50
2024/02/05 06:46:17;;;;;;;9.70;2.28;;;9.90;99.90;;;;;;5066335;28;20032;-49
2024/02/05 06:48:42;;;;;;;9.85;2.00;;;9.90;99.90;;;;;;5066419;28;20175;-48
2024/02/05 06:51:08;;;;;;;9.90;2.53;;;9.90;99.90;;;;;;5066319;28;20029;-49
2024/02/05 06:53:34;;;;;;;13.02;2.10;;;9.90;99.90;;;;;;5066396;28;20029;-50
2024/02/05 06:55:59;;;;;;;7.75;1.70;;;9.90;99.90;;;;;;5066161;28;20329;-49
2024/02/05 06:58:25;;;;;;;10.15;2.03;;;9.90;99.90;;;;;;5066188;28;20040;-50
2024/02/05 07:00:51;;;;;;;8.93;2.33;;;9.90;99.90;;;;;;5066310;28;20024;-51
2024/02/05 07:03:16;;;;;;;11.05;2.13;;;9.90;99.90;;;;;;5066242;28;20028;-50
2024/02/05 07:05:42;;;;;;;14.48;2.20;;;9.90;99.90;;;;;;5066184;28;20099;-50
2024/02/05 07:08:08;;;;;;;12.70;2.03;;;9.90;99.90;;;;;;5066121;28;20063;-50
2024/02/05 07:10:33;;;;;;;8.52;1.58;;;9.90;99.90;;;;;;5066065;28;20310;-50
2024/02/05 07:12:59;;;;;;;7.43;1.50;;;9.80;99.90;;;;;;5065989;28;20098;-50
2024/02/05 07:15:25;;;;;;;12.77;1.70;;;9.80;99.90;;;;;;5066168;28;20216;-50
2024/02/05 07:17:51;;;;;;;12.18;2.13;;;9.80;99.90;;;;;;5065571;28;20072;-51
2024/02/05 07:20:17;;;;;;;13.02;2.22;;;9.90;99.90;;;;;;5065775;28;20036;-51
2024/02/05 07:22:43;;;;;;;5.40;1.20;;;9.80;99.90;;;;;;5065864;28;20047;-50
2024/02/05 07:25:09;;;;;;;7.80;1.67;;;9.80;99.90;;;;;;5065704;28;20036;-50
2024/02/05 07:27:35;;;;;;;13.18;2.05;;;9.70;99.90;;;;;;5065658;28;20032;-51
2024/02/05 07:30:01;;;;;;;9.80;2.22;;;9.70;99.90;;;;;;5065214;28;20029;-51
2024/02/05 07:32:26;;;;;;;4.57;1.23;;;9.60;99.90;;;;;;5064336;28;20095;-50
2024/02/05 07:34:52;;;;;;;3.70;1.20;;;9.60;99.90;;;;;;5065486;28;20043;-50
2024/02/05 07:37:18;;;;;;;5.40;1.48;;;9.50;99.90;;;;;;5065525;28;20283;-49
2024/02/05 07:39:43;;;;;;;7.75;1.40;;;9.50;99.90;;;;;;5064375;28;20008;-48
2024/02/05 07:42:09;;;;;;;10.93;1.90;;;9.50;99.90;;;;;;5065464;28;20037;-47
2024/02/05 07:44:35;;;;;;;6.93;1.55;;;9.50;99.90;;;;;;5065111;28;20097;-48
2024/02/05 07:47:00;;;;;;;7.15;1.45;;;9.50;99.90;;;;;;5065003;28;20032;-51
2024/02/05 07:49:27;;;;;;;10.77;1.38;;;9.50;99.90;;;;;;5065411;28;20036;-51
2024/02/05 07:51:54;;;;;;;10.70;1.40;;;9.50;99.90;;;;;;5065312;28;20020;-49
2024/02/05 07:54:19;;;;;;;4.78;1.10;;;9.50;99.90;;;;;;5065239;28;20181;-49
2024/02/05 07:56:45;;;;;;;2.35;0.75;;;9.50;99.90;;;;;;5065525;28;20088;-51
2024/02/05 07:59:11;;;;;;;5.10;0.88;;;9.50;99.90;;;;;;5064463;28;20279;-52
2024/02/05 08:01:37;;;;;;;5.03;0.88;;;9.50;99.90;;;;;;5064374;28;20025;-51
2024/02/05 08:04:03;;;;;;;4.55;1.10;;;9.50;99.90;;;;;;5065260;28;20041;-52
2024/02/05 08:06:29;;;;;;;2.28;0.95;;;9.50;99.90;;;;;;5065246;28;20025;-48
2024/02/05 08:08:56;;;;;;;4.40;1.80;;;9.40;99.90;;;;;;5064250;28;20235;-49
2024/02/05 08:11:23;;;;;;;5.55;1.90;;;9.50;99.90;;;;;;5065033;28;20040;-51
2024/02/05 08:13:49;;;;;;;6.80;2.35;;;9.50;99.90;;;;;;5065007;28;20393;-52
2024/02/05 08:16:15;;;;;;;6.97;1.50;;;9.40;99.90;;;;;;5064742;28;20295;-52
2024/02/05 08:18:41;;;;;;;6.25;1.55;;;9.50;99.90;;;;;;5065379;28;20051;-51
2024/02/05 08:21:06;;;;;;;5.90;1.67;;;9.50;99.90;;;;;;5065264;28;20213;-52
2024/02/05 08:23:32;;;;;;;9.27;1.98;;;9.50;99.90;;;;;;5063873;28;20032;-52
2024/02/05 08:25:58;;;;;;;8.00;2.05;;;9.40;99.90;;;;;;5063940;28;20290;-49
2024/02/05 08:28:23;;;;;;;8.35;2.75;;;9.40;99.90;;;;;;5065909;28;20147;-51
2024/02/05 08:30:49;;;;;;;6.10;2.03;;;9.50;99.90;;;;;;5067811;28;20021;-51
2024/02/05 08:33:15;;;;;;;11.55;2.75;;;9.50;99.90;;;;;;5068841;28;20319;-51
2024/02/05 08:35:40;;;;;;;15.27;3.40;;;9.40;99.90;;;;;;5068901;28;20090;-51
2024/02/05 08:38:09;;;;;;;13.45;3.38;;;9.50;99.90;;;;;;5068572;28;20028;-49
2024/02/05 08:40:35;;;;;;;8.30;1.60;;;9.50;99.90;;;;;;5068656;28;20171;-47
2024/02/05 08:43:00;;;;;;;3.40;1.20;;;9.40;99.90;;;;;;5068479;28;20024;-49
2024/02/05 08:45:27;;;;;;;6.90;1.42;;;9.50;99.90;;;;;;5068346;28;20028;-47
2024/02/05 08:47:53;;;;;;;9.73;2.30;;;9.50;99.90;;;;;;5068000;28;20041;-48
2024/02/05 08:50:19;;;;;;;4.95;1.83;;;9.50;99.90;;;;;;5068440;28;20100;-51
2024/02/05 08:52:46;;;;;;;10.02;2.47;;;9.50;99.90;;;;;;5068517;28;20021;-50
2024/02/05 08:55:12;;;;;;;6.20;1.33;;;9.50;99.90;;;;;;5067249;28;20097;-52
2024/02/05 08:57:39;;;;;;;9.45;1.65;;;9.50;99.90;;;;;;5067624;28;20021;-49
2024/02/05 09:00:09;;;;;;;6.95;1.70;;;9.50;99.90;;;;;;5068512;28;20017;-52
2024/02/05 09:02:35;;;;;;;8.18;2.08;;;9.50;99.90;;;;;;5068563;28;20104;-49
2024/02/05 09:05:01;;;;;;;9.52;2.13;;;9.50;99.90;;;;;;5068300;28;20029;-49
2024/02/05 09:07:28;;;;;;;6.32;1.85;;;9.50;99.90;;;;;;5068204;28;20100;-49
2024/02/05 09:09:54;;;;;;;6.57;1.80;;;9.60;99.90;;;;;;5068119;28;20033;-50
2024/02/05 09:12:20;;;;;;;9.00;1.75;;;9.60;99.90;;;;;;5068045;28;20052;-49
2024/02/05 09:14:46;;;;;;;11.68;2.03;;;9.60;99.90;;;;;;5068123;28;20021;-49
2024/02/05 09:17:11;;;;;;;13.20;2.08;;;9.60;99.90;;;;;;5067848;28;20097;-51
2024/02/05 09:19:37;;;;;;;5.97;1.73;;;9.70;99.90;;;;;;5066780;28;20024;-52
2024/02/05 09:22:03;;;;;;;6.88;1.50;;;9.60;99.90;;;;;;5068107;28;20052;-51
2024/02/05 09:24:29;;;;;;;11.63;2.20;;;9.60;99.90;;;;;;5068001;28;20056;-51
2024/02/05 09:26:54;;;;;;;13.73;2.22;;;9.60;99.90;;;;;;5068042;28;20309;-51
2024/02/05 09:29:21;;;;;;;7.70;2.05;;;9.60;99.90;;;;;;5066563;28;20182;-50
2024/02/05 09:31:47;;;;;;;5.70;1.60;;;9.60;99.90;;;;;;5067707;28;20214;-51
2024/02/05 09:34:14;;;;;;;7.57;1.77;;;9.60;99.90;;;;;;5067632;28;20036;-51
2024/02/05 09:36:40;;;;;;;6.55;1.65;;;9.60;99.90;;;;;;5067662;28;20017;-51
2024/02/05 09:39:05;;;;;;;3.78;1.73;;;9.50;99.90;;;;;;5066940;28;20294;-51
2024/02/05 09:41:34;;;;;;;9.82;2.42;;;9.50;99.90;;;;;;5066620;28;20032;-50
2024/02/05 09:44:00;;;;;;;8.70;1.90;;;9.60;99.90;;;;;;5067357;28;20040;-50
2024/02/05 09:46:26;;;;;;;9.85;2.17;;;9.60;99.90;;;;;;5066087;28;20029;-51
2024/02/05 09:48:52;;;;;;;8.10;1.98;;;9.60;99.90;;;;;;5067628;28;20032;-50
2024/02/05 09:51:17;;;;;;;7.53;2.28;;;9.60;99.90;;;;;;5066558;28;20342;-48
2024/02/05 09:53:43;;;;;;;11.45;2.35;;;9.70;99.90;;;;;;5066157;28;20068;-50
2024/02/05 09:56:09;;;;;;;15.43;2.92;;;9.70;99.90;;;;;;5066829;28;20054;-50
2024/02/05 09:58:35;;;;;;;14.32;2.80;;;9.80;99.90;;;;;;5066039;28;20027;-51
2024/02/05 10:01:00;;;;;;;19.98;3.40;;;9.80;99.90;;;;;;5066757;28;20265;-50
2024/02/05 10:03:29;;;;;;;23.05;4.35;;;9.80;99.90;;;;;;5066718;28;20029;-50
2024/02/05 10:05:55;;;;;;;24.05;5.00;;;9.80;99.90;;;;;;5067108;28;20033;-49
2024/02/05 10:08:20;;;;;;;20.80;4.00;;;9.80;99.90;;;;;;5067044;28;20333;-50
2024/02/05 10:10:46;;;;;;;22.88;3.60;;;9.90;99.90;;;;;;5067092;28;20040;-51
2024/02/05 10:13:12;;;;;;;17.55;3.33;;;9.90;99.90;;;;;;5067022;28;20175;-51
2024/02/05 10:15:39;;;;;;;26.80;4.15;;;10.00;99.90;;;;;;5066926;28;20033;-51
2024/02/05 10:18:05;;;;;;;23.27;4.15;;;10.00;99.90;;;;;;5066577;28;20123;-50
2024/02/05 10:20:33;;;;;;;13.05;3.28;;;10.00;99.90;;;;;;5066816;28;20336;-50
2024/02/05 10:22:59;;;;;;;22.05;4.47;;;10.00;99.90;;;;;;5066805;28;20130;-50
2024/02/05 10:25:26;;;;;;;26.52;5.28;;;10.00;99.90;;;;;;5066493;28;20121;-50
2024/02/05 10:27:58;;;;;;;14.23;2.78;;;10.00;99.90;;;;;;5066162;28;20070;-50
2024/02/05 10:30:27;;;;;;;16.58;3.88;;;10.00;99.90;;;;;;5066680;28;20104;-50
2024/02/05 10:33:00;;;;;;;17.38;3.65;;;10.10;99.90;;;;;;5066515;28;20332;-51
2024/02/05 10:35:26;;;;;;;18.25;3.90;;;10.10;99.90;;;;;;5066287;28;20032;-51
2024/02/05 10:37:52;;;;;;;19.73;3.70;;;10.10;99.90;;;;;;5066762;28;20016;-51
2024/02/05 10:40:17;;;;;;;20.05;4.47;;;10.10;99.90;;;;;;5065778;28;20047;-50
2024/02/05 10:42:43;;;;;;;17.00;3.15;;;10.20;99.90;;;;;;5065768;28;20040;-50
2024/02/05 10:45:09;;;;;;;17.25;3.20;;;10.20;99.90;;;;;;5066156;28;20088;-50
2024/02/05 10:47:36;;;;;;;15.60;3.88;;;10.20;99.90;;;;;;5065827;28;20048;-50
2024/02/05 10:50:02;;;;;;;14.55;3.55;;;10.30;99.90;;;;;;5066245;28;20032;-50
2024/02/05 10:52:28;;;;;;;19.35;4.45;;;10.30;99.90;;;;;;5065915;28;20029;-50
2024/02/05 10:54:57;;;;;;;21.92;4.28;;;10.30;99.90;;;;;;5066119;28;20099;-50
2024/02/05 10:57:26;;;;;;;17.30;3.72;;;10.30;99.90;;;;;;5065761;28;20291;-47
2024/02/05 10:59:52;;;;;;;18.15;3.60;;;10.30;99.90;;;;;;5065954;28;20021;-50
2024/02/05 11:02:33;;;;;;;18.63;3.90;;;10.40;99.90;;;;;;5064948;28;20036;-49
2024/02/05 11:05:00;;;;;;;25.48;4.38;;;10.40;99.90;;;;;;5064675;28;20074;-50
2024/02/05 11:07:27;;;;;;;27.13;4.95;;;10.40;99.90;;;;;;5065843;28;20039;-49
2024/02/05 11:09:53;;;;;;;18.55;4.72;;;10.50;99.90;;;;;;5064668;28;20150;-49
2024/02/05 11:12:21;;;;;;;24.35;8.00;;;10.50;99.90;;;;;;5064552;28;20029;-48
2024/02/05 11:14:47;;;;;;;29.85;10.88;;;10.40;99.90;;;;;;5065437;28;20024;-50
2024/02/05 11:17:13;;;;;;;39.70;18.02;;;10.50;99.90;;;;;;5064493;28;20212;-50
2024/02/05 11:19:38;;;;;;;41.92;15.65;;;10.50;99.90;;;;;;5064520;28;20037;-48
2024/02/05 11:22:04;;;;;;;24.27;9.57;;;10.40;99.90;;;;;;5064709;28;20032;-49
2024/02/05 11:24:30;;;;;;;28.40;10.15;;;10.50;99.90;;;;;;5064675;28;20033;-50
2024/02/05 11:26:56;;;;;;;25.23;8.00;;;10.40;99.90;;;;;;5064688;28;20044;-50
2024/02/05 11:29:23;;;;;;;23.55;7.35;;;10.50;99.90;;;;;;5064606;28;20088;-50
2024/02/05 11:31:49;;;;;;;16.77;4.65;;;10.50;99.90;;;;;;5065761;28;20275;-50
2024/02/05 11:34:16;;;;;;;19.83;4.97;;;10.50;99.90;;;;;;5065408;28;20052;-50
2024/02/05 11:36:48;;;;;;;17.42;4.57;;;10.50;99.90;;;;;;5065402;28;20275;-48
2024/02/05 11:39:15;;;;;;;15.63;5.30;;;10.50;99.90;;;;;;5065491;28;20278;-49
2024/02/05 11:41:41;;;;;;;15.65;6.28;;;10.50;99.90;;;;;;5065007;28;20198;-50
2024/02/05 11:44:14;;;;;;;18.00;5.25;;;10.60;99.90;;;;;;5065092;28;20025;-50
2024/02/05 11:46:41;;;;;;;24.95;6.10;;;10.60;99.90;;;;;;5063819;28;20029;-50
2024/02/05 11:49:06;;;;;;;18.65;5.80;;;10.60;99.90;;;;;;5065231;28;20061;-49
2024/02/05 11:51:32;;;;;;;23.92;5.43;;;10.60;99.90;;;;;;5064977;28;20040;-49
2024/02/05 11:53:58;;;;;;;17.83;4.22;;;10.60;99.90;;;;;;5064965;28;20052;-50
2024/02/05 11:56:24;;;;;;;20.30;5.30;;;10.70;99.90;;;;;;5065058;28;20033;-50
2024/02/05 11:58:50;;;;;;;11.35;3.55;;;10.60;99.90;;;;;;5064750;28;20029;-49
2024/02/05 12:01:16;;;;;;;21.98;4.85;;;10.70;99.90;;;;;;5065302;28;20184;-47
2024/02/05 12:03:44;;;;;;;28.88;5.38;;;10.70;99.90;;;;;;5048688;28;20108;-48
2024/02/05 12:06:09;;;;;;;25.88;5.90;;;10.70;99.90;;;;;;5067919;28;20025;-48
2024/02/05 12:08:35;;;;;;;16.92;4.63;;;10.70;99.90;;;;;;5051535;28;20085;-50
2024/02/05 12:11:01;;;;;;;19.58;4.53;;;10.70;99.90;;;;;;5068066;28;20294;-50
2024/02/05 12:13:26;;;;;;;21.20;5.45;;;10.60;99.90;;;;;;5068562;28;20087;-50
2024/02/05 12:15:52;;;;;;;23.25;6.07;;;10.60;99.90;;;;;;5068589;28;20021;-49
2024/02/05 12:18:17;;;;;;;25.75;5.88;;;10.60;99.90;;;;;;5068176;28;20112;-50
2024/02/05 12:20:43;;;;;;;22.75;5.47;;;10.60;99.90;;;;;;5068708;28;20025;-48
2024/02/05 12:23:09;;;;;;;20.58;5.57;;;10.60;99.90;;;;;;5067687;28;20050;-48
2024/02/05 12:25:35;;;;;;;19.63;4.78;;;10.60;99.90;;;;;;5068290;28;20029;-49
2024/02/05 12:28:00;;;;;;;31.88;5.00;;;10.60;99.90;;;;;;5068692;28;20041;-48
2024/02/05 12:30:26;;;;;;;26.52;5.53;;;10.60;99.90;;;;;;5051084;28;20108;-49
2024/02/05 12:32:55;;;;;;;25.45;5.38;;;10.60;99.90;;;;;;5068626;28;20052;-49
2024/02/05 12:35:21;;;;;;;22.00;5.72;;;10.60;99.90;;;;;;5068291;28;20020;-50
2024/02/05 12:37:51;;;;;;;18.50;5.43;;;10.60;99.90;;;;;;5068250;28;20025;-50
2024/02/05 12:40:18;;;;;;;31.25;7.35;;;10.60;99.90;;;;;;5068709;28;20028;-50
2024/02/05 12:42:44;;;;;;;30.73;13.80;;;10.60;99.90;;;;;;5067476;28;20040;-49